AFN weather

Jaffrey Airport Silver Ranch Airport
Jaffrey, New Hampshire, United States

Public forecast

Using degrees Fahrenheit for public forecast. Weather courtesy of forecast.io.

Current aviation weather report (METAR) for Jaffrey Airport Silver Ranch Airport

Retrieved 2019/10/23 03:52 UTC (42 minutes ago):

KAFN 230352Z AUTO VRB04KT 5SM RA BR BKN008 BKN023 OVC034 11/09 A2989 RMK AO2 SLP128 P0007 T01110094

Closest aviation forecast (TAF) to Jaffrey Airport Silver Ranch Airport

Closest forecast is Manchester-Boston Regional Airport, 26.1 nm (48.4 km) ENE. Retrieved 2019-10-23 00:21 UTC (4 hours ago):

TAF KMHT 222320Z 2300/2324 09010KT P6SM OVC008 FM230200 08009KT 3SM -DZ OVC008 FM230500 08007KT 2SM RA BR OVC004 FM231200 30010G17KT P6SM SCT015 BKN100